Time;durP1;ratioP1;P1;durP2;ratioP2;P2;SDS_P1;SDS_P2;PMS_P1;PMS_P2;Temp;Humidity;BMP_temperature;BMP_pressure;BME280_temperature;BME280_humidity;BME280_pressure;Samples;Min_cycle;Max_cycle;Signal;HPM_P1;HPM_P2
2024/03/01 00:00:24;;;;;;;4.18;1.50;;;8.10;62.80;;;;;;5038957;28;20040;-79
2024/03/01 00:03:09;;;;;;;6.65;1.40;;;8.10;62.80;;;;;;5036586;28;20460;-78
2024/03/01 00:05:53;;;;;;;3.40;1.50;;;8.10;62.80;;;;;;5038907;28;20043;-78
2024/03/01 00:08:38;;;;;;;2.40;1.20;;;8.10;62.90;;;;;;5034652;28;20088;-78
2024/03/01 00:11:24;;;;;;;6.13;2.00;;;8.00;62.70;;;;;;5050642;28;20052;-78
2024/03/01 00:14:08;;;;;;;5.72;1.45;;;8.00;62.80;;;;;;5036208;28;20036;-78
2024/03/01 00:16:53;;;;;;;5.10;1.23;;;8.00;62.80;;;;;;5042698;28;20151;-78
2024/03/01 00:19:37;;;;;;;4.93;1.45;;;8.00;62.80;;;;;;5037263;28;20080;-78
2024/03/01 00:22:23;;;;;;;4.15;1.20;;;7.90;62.70;;;;;;5040258;28;20187;-78
2024/03/01 00:25:10;;;;;;;3.60;1.42;;;7.90;62.70;;;;;;5040924;28;20039;-78
2024/03/01 00:27:55;;;;;;;3.65;1.38;;;7.80;62.50;;;;;;5032420;28;20149;-78
2024/03/01 00:30:40;;;;;;;4.10;1.30;;;7.80;62.60;;;;;;5038486;28;20053;-78
2024/03/01 00:33:25;;;;;;;3.55;1.60;;;7.80;62.60;;;;;;5040762;28;20118;-77
2024/03/01 00:36:10;;;;;;;3.80;1.05;;;7.80;62.60;;;;;;5045130;28;20079;-77
2024/03/01 00:38:54;;;;;;;4.25;1.23;;;7.80;62.60;;;;;;5036198;28;20044;-78
2024/03/01 00:41:39;;;;;;;4.90;1.45;;;7.80;62.70;;;;;;5038122;28;20036;-78
2024/03/01 00:44:24;;;;;;;3.63;1.50;;;7.70;62.50;;;;;;5038012;28;20189;-77
2024/03/01 00:47:08;;;;;;;2.90;1.15;;;7.70;62.60;;;;;;5043631;28;20303;-78
2024/03/01 00:49:53;;;;;;;3.08;1.35;;;7.70;62.60;;;;;;5040767;28;20048;-78
2024/03/01 00:52:37;;;;;;;5.30;1.38;;;7.70;62.60;;;;;;5035987;28;20032;-78
2024/03/01 00:55:22;;;;;;;7.90;1.60;;;7.60;62.50;;;;;;5035356;28;20048;-77
2024/03/01 00:58:08;;;;;;;5.05;1.48;;;7.60;62.50;;;;;;5050275;28;20036;-78
2024/03/01 01:00:53;;;;;;;6.13;1.27;;;7.60;62.50;;;;;;5036363;28;20491;-78
2024/03/01 01:03:37;;;;;;;4.88;1.30;;;7.60;63.00;;;;;;5049235;28;20562;-78
2024/03/01 01:06:23;;;;;;;4.50;1.35;;;7.50;62.30;;;;;;5038665;28;20090;-78
2024/03/01 01:09:08;;;;;;;4.72;1.08;;;7.50;62.40;;;;;;5039263;28;20094;-78
2024/03/01 01:11:53;;;;;;;2.83;1.02;;;7.50;62.40;;;;;;5042738;28;20043;-77
2024/03/01 01:14:38;;;;;;;4.20;1.17;;;7.50;62.50;;;;;;5040879;28;20036;-78
2024/03/01 01:17:23;;;;;;;6.55;1.85;;;7.40;62.30;;;;;;5042115;28;20040;-77
2024/03/01 01:20:08;;;;;;;5.90;1.17;;;7.40;62.40;;;;;;5044504;28;20641;-78
2024/03/01 01:22:53;;;;;;;3.50;1.23;;;7.40;62.40;;;;;;5037548;28;20502;-77
2024/03/01 01:25:37;;;;;;;4.45;1.00;;;7.30;62.30;;;;;;5036870;28;20110;-78
2024/03/01 01:28:23;;;;;;;5.78;1.30;;;7.30;62.30;;;;;;5039679;28;20056;-78
2024/03/01 01:31:08;;;;;;;5.07;0.95;;;7.30;62.30;;;;;;5034620;28;20106;-78
2024/03/01 01:33:53;;;;;;;5.18;1.55;;;7.30;62.30;;;;;;5035106;28;20148;-78
2024/03/01 01:36:37;;;;;;;7.13;1.33;;;7.30;62.40;;;;;;5035653;28;20238;-78
2024/03/01 01:39:22;;;;;;;3.25;1.08;;;7.20;62.20;;;;;;5033075;28;20090;-77
2024/03/01 01:42:07;;;;;;;4.85;1.67;;;7.20;62.30;;;;;;5040341;28;20119;-79
2024/03/01 01:44:51;;;;;;;4.10;1.05;;;7.20;62.30;;;;;;5031924;28;20498;-79
2024/03/01 01:47:36;;;;;;;3.60;0.98;;;7.20;62.30;;;;;;5037502;28;20044;-79
2024/03/01 01:50:21;;;;;;;4.32;1.67;;;7.20;62.40;;;;;;5035217;28;20263;-79
2024/03/01 01:53:06;;;;;;;5.88;1.38;;;7.10;62.30;;;;;;5033235;28;20071;-79
2024/03/01 01:55:52;;;;;;;4.28;1.52;;;7.10;62.30;;;;;;5036394;28;20518;-79
2024/03/01 01:58:37;;;;;;;3.95;1.10;;;7.10;62.40;;;;;;5035024;28;20063;-79
2024/03/01 02:01:22;;;;;;;7.30;1.40;;;7.10;62.50;;;;;;5031960;28;20040;-78
2024/03/01 02:04:08;;;;;;;9.10;1.20;;;7.10;62.50;;;;;;5035691;28;20076;-79
2024/03/01 02:06:52;;;;;;;4.45;1.23;;;7.10;62.50;;;;;;5034223;28;20404;-78
2024/03/01 02:09:39;;;;;;;4.13;0.90;;;7.10;62.60;;;;;;5042898;28;20101;-78
2024/03/01 02:12:23;;;;;;;3.65;1.55;;;7.10;62.60;;;;;;5033394;28;20435;-80
2024/03/01 02:15:08;;;;;;;6.38;2.00;;;7.10;62.70;;;;;;5035599;28;20511;-79
2024/03/01 02:17:54;;;;;;;8.85;1.42;;;7.10;62.70;;;;;;5033365;28;20104;-79
2024/03/01 02:20:59;;;;;;;4.57;1.20;;;7.10;62.80;;;;;;5021212;28;20067;-79
2024/03/01 02:23:44;;;;;;;5.75;1.98;;;7.10;62.90;;;;;;5031583;28;20703;-80
2024/03/01 02:26:30;;;;;;;3.72;0.95;;;7.10;62.90;;;;;;5034730;28;20075;-80
2024/03/01 02:29:15;;;;;;;6.07;1.30;;;7.10;62.90;;;;;;5037551;28;20482;-80
2024/03/01 02:32:00;;;;;;;6.03;1.90;;;7.10;63.00;;;;;;5038837;28;20117;-80
2024/03/01 02:34:45;;;;;;;3.97;1.40;;;7.10;63.10;;;;;;5037234;28;20417;-79
2024/03/01 02:37:29;;;;;;;2.88;0.90;;;7.10;63.10;;;;;;5034453;28;20044;-79
2024/03/01 02:40:14;;;;;;;6.78;1.83;;;7.20;63.30;;;;;;5037129;28;20098;-79
2024/03/01 02:42:59;;;;;;;2.55;1.45;;;7.20;63.30;;;;;;5038703;28;20584;-79
2024/03/01 02:45:43;;;;;;;4.10;1.10;;;7.20;63.40;;;;;;5040206;28;20048;-79
2024/03/01 02:48:28;;;;;;;2.50;1.05;;;7.20;63.40;;;;;;5048204;28;20507;-79
2024/03/01 02:51:13;;;;;;;6.32;1.05;;;7.20;63.50;;;;;;5042598;28;20055;-79
2024/03/01 02:53:58;;;;;;;5.30;1.70;;;7.20;63.50;;;;;;5042600;28;20657;-79
2024/03/01 02:56:42;;;;;;;3.95;0.95;;;7.30;63.80;;;;;;5040088;28;20086;-79
2024/03/01 02:59:28;;;;;;;3.63;1.13;;;7.30;63.80;;;;;;5042185;28;20068;-78
2024/03/01 03:02:12;;;;;;;4.50;1.00;;;7.40;64.10;;;;;;5042614;28;20040;-78
2024/03/01 03:04:57;;;;;;;3.28;1.02;;;7.40;64.10;;;;;;5039468;28;20144;-78
2024/03/01 03:07:42;;;;;;;2.28;1.15;;;7.40;64.20;;;;;;5043975;28;20047;-77
2024/03/01 03:10:26;;;;;;;4.10;1.42;;;7.40;64.20;;;;;;5044598;28;20082;-78
2024/03/01 03:13:10;;;;;;;2.55;0.98;;;7.50;64.40;;;;;;5045767;28;20506;-78
2024/03/01 03:15:56;;;;;;;4.35;1.08;;;7.50;64.40;;;;;;5044568;28;20091;-78
2024/03/01 03:18:41;;;;;;;5.47;1.10;;;7.60;65.20;;;;;;5047012;28;20183;-78
2024/03/01 03:21:26;;;;;;;5.22;1.20;;;7.60;64.70;;;;;;5046433;28;20120;-78
2024/03/01 03:24:11;;;;;;;4.53;1.17;;;7.60;64.60;;;;;;5053018;28;20039;-78
2024/03/01 03:26:56;;;;;;;4.45;1.10;;;7.60;64.60;;;;;;5041668;28;20060;-78
2024/03/01 03:29:41;;;;;;;4.90;1.17;;;7.60;64.70;;;;;;5043223;28;20091;-78
2024/03/01 03:32:25;;;;;;;4.95;1.10;;;7.70;64.90;;;;;;5045712;28;20631;-78
2024/03/01 03:35:10;;;;;;;5.07;1.20;;;7.70;64.90;;;;;;5031603;28;20303;-78
2024/03/01 03:37:54;;;;;;;8.38;1.10;;;7.70;64.90;;;;;;5031542;28;20082;-78
2024/03/01 03:40:40;;;;;;;4.75;0.90;;;7.80;65.10;;;;;;5045486;28;20302;-78
2024/03/01 03:43:25;;;;;;;5.93;1.10;;;7.80;65.20;;;;;;5035194;28;20140;-78
2024/03/01 03:46:11;;;;;;;7.13;1.27;;;7.80;65.10;;;;;;5039462;28;20032;-78
2024/03/01 03:48:55;;;;;;;2.47;0.90;;;7.80;65.20;;;;;;5041938;28;20172;-78
2024/03/01 03:51:40;;;;;;;4.40;1.27;;;7.90;65.40;;;;;;5040638;28;20106;-78
2024/03/01 03:54:24;;;;;;;5.70;1.60;;;7.90;65.40;;;;;;5046910;28;20025;-78
2024/03/01 03:57:10;;;;;;;3.72;1.33;;;7.90;65.90;;;;;;5053266;28;20054;-78
2024/03/01 03:59:55;;;;;;;4.85;1.00;;;7.90;65.40;;;;;;5049319;28;20050;-78
2024/03/01 04:02:40;;;;;;;4.10;1.88;;;8.00;65.60;;;;;;5049222;28;20091;-78
2024/03/01 04:05:25;;;;;;;5.18;1.77;;;8.00;65.60;;;;;;5044597;28;20055;-80
2024/03/01 04:08:10;;;;;;;7.63;1.10;;;8.00;65.60;;;;;;5048867;28;20047;-79
2024/03/01 04:10:54;;;;;;;3.63;1.15;;;8.00;65.60;;;;;;5046863;28;20048;-80
2024/03/01 04:13:39;;;;;;;3.00;1.13;;;8.10;65.80;;;;;;5040356;28;20531;-80
2024/03/01 04:16:24;;;;;;;4.53;1.50;;;8.10;65.70;;;;;;5051774;28;20454;-80
2024/03/01 04:19:08;;;;;;;5.97;1.75;;;8.10;65.70;;;;;;5036418;28;20064;-81
2024/03/01 04:21:53;;;;;;;6.30;1.35;;;8.10;65.70;;;;;;5042226;28;20063;-80
2024/03/01 04:24:38;;;;;;;3.53;0.90;;;8.10;65.70;;;;;;5047880;28;20385;-80
2024/03/01 04:27:22;;;;;;;6.47;1.20;;;8.20;66.00;;;;;;5046858;28;20063;-80
2024/03/01 04:30:09;;;;;;;5.57;1.20;;;8.20;66.00;;;;;;5040689;28;20137;-80
2024/03/01 04:32:53;;;;;;;3.95;1.45;;;8.20;66.00;;;;;;5042302;28;20051;-81
2024/03/01 04:35:39;;;;;;;5.75;1.08;;;8.30;66.20;;;;;;5035430;28;20087;-79
2024/03/01 04:38:23;;;;;;;5.03;1.00;;;8.30;66.20;;;;;;5046940;28;20031;-79
2024/03/01 04:41:21;;;;;;;4.65;1.15;;;8.30;66.30;;;;;;5044744;28;20048;-79
2024/03/01 04:44:05;;;;;;;3.53;1.08;;;8.30;66.20;;;;;;5040616;28;20347;-79
2024/03/01 04:46:50;;;;;;;3.55;1.05;;;8.30;66.20;;;;;;5040358;28;20115;-78
2024/03/01 04:49:34;;;;;;;2.75;0.63;;;8.40;66.50;;;;;;5043024;28;20052;-78
2024/03/01 04:52:19;;;;;;;4.60;0.95;;;8.40;66.40;;;;;;5044435;28;20098;-78
2024/03/01 04:55:05;;;;;;;1.95;0.93;;;8.40;66.50;;;;;;5042988;28;20094;-78
2024/03/01 04:57:50;;;;;;;2.53;0.80;;;8.40;66.50;;;;;;5042962;28;20052;-78
2024/03/01 05:00:35;;;;;;;5.32;1.02;;;8.40;66.50;;;;;;5035649;28;20078;-78
2024/03/01 05:03:20;;;;;;;2.67;1.08;;;8.40;66.60;;;;;;5043073;28;20545;-78
2024/03/01 05:06:08;;;;;;;4.25;0.85;;;8.40;66.50;;;;;;5043591;28;20036;-78
2024/03/01 05:08:53;;;;;;;2.50;0.65;;;8.50;66.70;;;;;;5046589;28;20040;-78
2024/03/01 05:11:37;;;;;;;1.95;0.70;;;8.50;66.80;;;;;;5038315;28;20052;-78
2024/03/01 05:14:22;;;;;;;3.58;1.00;;;8.60;66.90;;;;;;5023269;28;20626;-78
2024/03/01 05:17:11;;;;;;;4.05;0.70;;;8.60;66.90;;;;;;5042717;28;20514;-78
2024/03/01 05:19:56;;;;;;;2.67;0.50;;;8.60;67.00;;;;;;5039027;28;20645;-77
2024/03/01 05:22:42;;;;;;;2.53;0.80;;;8.60;67.00;;;;;;5037805;28;20098;-76
2024/03/01 05:25:28;;;;;;;1.48;0.55;;;8.60;67.00;;;;;;5044763;28;20085;-78
2024/03/01 05:28:12;;;;;;;2.45;0.50;;;8.60;67.00;;;;;;5042337;28;20478;-78
2024/03/01 05:30:57;;;;;;;2.05;0.73;;;8.60;67.00;;;;;;5017067;28;20134;-78
2024/03/01 05:33:41;;;;;;;2.63;0.73;;;8.70;67.20;;;;;;5043401;28;20317;-77
2024/03/01 05:36:26;;;;;;;1.17;0.50;;;8.70;67.30;;;;;;5040021;28;20085;-78
2024/03/01 05:39:18;;;;;;;2.70;0.80;;;8.70;67.30;;;;;;5038351;28;20088;-77
2024/03/01 05:42:02;;;;;;;2.47;0.70;;;8.70;67.30;;;;;;5045554;28;20044;-78
2024/03/01 05:44:47;;;;;;;2.20;0.63;;;8.70;67.30;;;;;;5044189;28;20040;-78
2024/03/01 05:47:32;;;;;;;3.15;0.57;;;8.70;67.40;;;;;;5036402;28;20102;-78
2024/03/01 05:50:16;;;;;;;2.78;0.75;;;8.70;67.40;;;;;;5040525;28;20498;-78
2024/03/01 05:53:02;;;;;;;2.33;0.60;;;8.70;67.40;;;;;;5036064;28;20106;-78
2024/03/01 05:55:46;;;;;;;2.38;0.80;;;8.80;67.70;;;;;;5037205;28;20130;-78
2024/03/01 05:58:31;;;;;;;1.08;0.40;;;8.80;67.60;;;;;;5038805;28;20132;-78
2024/03/01 06:01:18;;;;;;;2.78;1.10;;;8.80;67.60;;;;;;5033456;28;20107;-78
2024/03/01 06:04:09;;;;;;;5.15;1.17;;;8.80;67.70;;;;;;5034276;28;20550;-78
2024/03/01 06:06:53;;;;;;;4.68;0.60;;;8.90;67.80;;;;;;5044461;28;20537;-78
2024/03/01 06:09:40;;;;;;;4.40;0.80;;;8.80;67.70;;;;;;5038052;28;20519;-77
2024/03/01 06:12:25;;;;;;;3.70;0.80;;;8.80;67.70;;;;;;5037761;28;20478;-77
2024/03/01 06:15:09;;;;;;;1.95;0.60;;;8.90;67.90;;;;;;5041624;28;20059;-77
2024/03/01 06:17:54;;;;;;;4.68;0.93;;;8.90;67.90;;;;;;5040249;28;20047;-77
2024/03/01 06:20:42;;;;;;;1.83;0.77;;;8.90;67.90;;;;;;5035244;28;20072;-78
2024/03/01 06:23:28;;;;;;;5.95;1.13;;;8.90;67.90;;;;;;5030524;28;20077;-78
2024/03/01 06:26:13;;;;;;;2.95;0.98;;;8.90;68.00;;;;;;5031217;28;20075;-77
2024/03/01 06:28:58;;;;;;;1.75;0.57;;;8.90;68.00;;;;;;5038031;28;20171;-79
2024/03/01 06:31:42;;;;;;;1.38;0.50;;;8.90;68.00;;;;;;5034409;28;20052;-78
2024/03/01 06:34:28;;;;;;;3.05;0.88;;;8.90;68.00;;;;;;5041089;28;20118;-78
2024/03/01 06:37:13;;;;;;;2.38;0.98;;;8.90;68.10;;;;;;5033277;28;20035;-77
2024/03/01 06:39:57;;;;;;;3.28;0.60;;;8.90;68.10;;;;;;5047230;28;20094;-78
2024/03/01 06:42:42;;;;;;;0.77;0.45;;;8.90;68.10;;;;;;5021499;28;20099;-79
2024/03/01 06:45:26;;;;;;;2.47;0.43;;;8.90;68.20;;;;;;5028586;28;20114;-81
2024/03/01 06:48:11;;;;;;;8.52;0.80;;;8.90;68.20;;;;;;5031294;28;20048;-79
2024/03/01 06:50:56;;;;;;;3.55;0.70;;;8.90;68.30;;;;;;5044571;28;20050;-79
2024/03/01 06:53:42;;;;;;;1.33;0.50;;;9.00;68.50;;;;;;5030443;28;20071;-76
2024/03/01 06:56:27;;;;;;;3.50;0.57;;;9.00;68.60;;;;;;5030223;28;20044;-78
2024/03/01 06:59:11;;;;;;;1.55;0.52;;;9.00;68.60;;;;;;5035846;28;20416;-79
2024/03/01 07:01:56;;;;;;;3.22;0.50;;;9.00;68.80;;;;;;5034683;28;20596;-78
2024/03/01 07:04:40;;;;;;;16.92;3.95;;;9.10;69.10;;;;;;5035164;28;20121;-77
2024/03/01 07:07:24;;;;;;;12.65;3.97;;;9.10;69.30;;;;;;5035609;28;20044;-77
2024/03/01 07:10:09;;;;;;;13.60;3.25;;;9.20;69.50;;;;;;5034907;28;20051;-76
2024/03/01 07:12:53;;;;;;;41.50;10.93;;;9.20;69.70;;;;;;5037317;28;20039;-77
2024/03/01 07:15:38;;;;;;;38.22;11.00;;;9.20;69.80;;;;;;5035247;28;20138;-77
2024/03/01 07:18:22;;;;;;;41.42;9.00;;;9.20;69.90;;;;;;5034730;28;20064;-76
2024/03/01 07:21:07;;;;;;;35.78;8.48;;;9.30;70.20;;;;;;5029979;28;20040;-76
2024/03/01 07:23:51;;;;;;;33.10;8.38;;;9.30;70.30;;;;;;5032290;28;20091;-76
2024/03/01 07:26:36;;;;;;;25.73;6.45;;;9.40;70.60;;;;;;5039918;28;20261;-76
2024/03/01 07:29:21;;;;;;;29.40;6.18;;;9.40;70.70;;;;;;5027700;28;20051;-76
2024/03/01 07:32:06;;;;;;;22.88;6.00;;;9.40;70.70;;;;;;5038052;28;20499;-78
2024/03/01 07:34:51;;;;;;;19.73;4.22;;;9.40;70.70;;;;;;5033744;28;20150;-77
2024/03/01 07:37:35;;;;;;;19.63;4.85;;;9.40;70.80;;;;;;5036369;28;20040;-77
2024/03/01 07:40:21;;;;;;;13.15;3.38;;;9.50;71.00;;;;;;5034065;28;20539;-76
2024/03/01 07:43:05;;;;;;;12.32;3.65;;;9.50;71.10;;;;;;5037789;28;20112;-76
2024/03/01 07:45:50;;;;;;;13.38;3.30;;;9.50;71.10;;;;;;5034451;28;20044;-75
2024/03/01 07:48:35;;;;;;;14.82;3.72;;;9.60;71.20;;;;;;5033537;28;20064;-76
2024/03/01 07:51:19;;;;;;;11.18;3.50;;;9.60;71.10;;;;;;5036217;28;20052;-75
2024/03/01 07:54:04;;;;;;;10.07;3.42;;;9.60;71.10;;;;;;5046108;28;20045;-75
2024/03/01 07:56:49;;;;;;;8.75;2.67;;;9.60;71.10;;;;;;5033866;28;20110;-76
2024/03/01 07:59:33;;;;;;;8.23;2.50;;;9.60;71.00;;;;;;5038830;28;20063;-76
2024/03/01 08:02:18;;;;;;;8.55;2.50;;;9.60;70.90;;;;;;5041413;28;20086;-76
2024/03/01 08:05:04;;;;;;;7.68;2.03;;;9.60;70.80;;;;;;5037275;28;20121;-76
2024/03/01 08:07:48;;;;;;;5.38;2.10;;;9.50;70.50;;;;;;5040229;28;20526;-77
2024/03/01 08:10:34;;;;;;;4.57;1.50;;;9.50;70.40;;;;;;5032872;28;20398;-76
2024/03/01 08:13:18;;;;;;;5.07;1.95;;;9.50;70.40;;;;;;5031080;28;20871;-76
2024/03/01 08:16:09;;;;;;;4.88;1.60;;;9.50;70.30;;;;;;5022221;28;20441;-76
2024/03/01 08:18:54;;;;;;;5.22;1.55;;;9.40;70.10;;;;;;5033511;28;20352;-76
2024/03/01 08:21:39;;;;;;;4.40;2.15;;;9.40;70.10;;;;;;5040423;28;20427;-76
2024/03/01 08:24:23;;;;;;;4.93;1.73;;;9.30;69.80;;;;;;5029585;28;20087;-77
2024/03/01 08:27:11;;;;;;;4.07;1.23;;;9.40;70.00;;;;;;5026049;28;20064;-76
2024/03/01 08:29:57;;;;;;;5.35;1.23;;;9.30;69.80;;;;;;5028690;28;20039;-76
2024/03/01 08:32:45;;;;;;;4.32;1.40;;;9.30;69.70;;;;;;5027260;28;20069;-77
2024/03/01 08:35:30;;;;;;;3.13;0.90;;;9.30;70.20;;;;;;5020063;28;20060;-78
2024/03/01 08:38:43;;;;;;;3.35;1.30;;;9.30;69.60;;;;;;5025948;28;20249;-78
2024/03/01 08:41:29;;;;;;;2.65;0.90;;;9.30;69.40;;;;;;5033091;28;20040;-76
2024/03/01 08:44:50;;;;;;;2.35;1.27;;;9.30;69.30;;;;;;5036685;28;20503;-78
2024/03/01 08:47:40;;;;;;;2.55;0.77;;;9.20;69.10;;;;;;5032092;28;20553;-78
2024/03/01 08:50:24;;;;;;;4.63;1.48;;;9.20;69.00;;;;;;5030348;28;20090;-75
2024/03/01 08:53:45;;;;;;;2.38;0.60;;;9.20;69.00;;;;;;5038718;28;20087;-78
2024/03/01 08:56:38;;;;;;;2.05;0.90;;;9.20;68.90;;;;;;5024853;28;20187;-77
2024/03/01 08:59:36;;;;;;;;;;;9.10;68.70;;;;;;5036078;28;21235;-75
2024/03/01 09:02:27;;;;;;;2.70;0.68;;;9.10;68.70;;;;;;5040484;28;19918;-76
2024/03/01 09:05:13;;;;;;;1.75;0.80;;;9.00;68.40;;;;;;5030864;28;20179;-76
2024/03/01 09:08:00;;;;;;;2.17;0.60;;;9.00;68.50;;;;;;5024941;28;20499;-78
2024/03/01 09:10:45;;;;;;;2.28;0.88;;;9.00;68.50;;;;;;5039764;28;20067;-78
2024/03/01 09:13:31;;;;;;;2.78;0.70;;;8.90;68.50;;;;;;5039630;28;20420;-77
2024/03/01 09:16:18;;;;;;;2.15;0.73;;;8.90;68.50;;;;;;5028742;28;20171;-78
2024/03/01 09:19:04;;;;;;;2.33;0.80;;;8.90;68.50;;;;;;5034127;28;20063;-78
2024/03/01 09:21:49;;;;;;;3.67;0.80;;;8.90;68.40;;;;;;5024787;28;20083;-78
2024/03/01 09:24:37;;;;;;;3.83;1.33;;;9.00;68.40;;;;;;5030974;28;20115;-78
2024/03/01 09:27:29;;;;;;;3.25;1.00;;;9.00;68.30;;;;;;5034708;28;20088;-78
2024/03/01 09:30:16;;;;;;;3.50;1.10;;;9.00;68.20;;;;;;5029782;28;20139;-78
2024/03/01 09:33:02;;;;;;;3.10;0.90;;;9.00;68.00;;;;;;5033820;28;20052;-78
2024/03/01 09:35:50;;;;;;;2.05;0.70;;;9.10;68.20;;;;;;5017746;28;20052;-78
2024/03/01 09:38:35;;;;;;;2.88;1.08;;;9.10;68.00;;;;;;5039822;28;20503;-77
2024/03/01 09:41:51;;;;;;;4.57;1.55;;;9.20;68.00;;;;;;5036739;28;20071;-77
2024/03/01 09:44:49;;;;;;;1.60;0.70;;;9.20;67.90;;;;;;5036008;28;20048;-76
2024/03/01 09:47:56;;;;;;;1.77;0.73;;;9.20;67.70;;;;;;5027904;28;20520;-79
2024/03/01 09:50:59;;;;;;;2.90;0.68;;;9.20;67.60;;;;;;5034107;28;20107;-76
2024/03/01 09:53:55;;;;;;;7.63;1.13;;;9.20;67.60;;;;;;5036846;28;20040;-77
2024/03/01 09:57:30;;;;;;;4.22;0.88;;;9.20;67.50;;;;;;5032786;28;20043;-76
2024/03/01 10:00:39;;;;;;;2.67;0.68;;;9.20;67.40;;;;;;5026579;28;20596;-76
2024/03/01 10:03:44;;;;;;;2.22;0.85;;;9.30;67.50;;;;;;5034570;28;20090;-77
2024/03/01 10:07:06;;;;;;;3.80;0.82;;;9.20;67.30;;;;;;5030503;28;20490;-77
2024/03/01 10:10:37;;;;;;;2.45;0.75;;;9.20;67.30;;;;;;5025525;28;20447;-76
2024/03/01 10:13:28;;;;;;;3.17;1.20;;;9.20;67.20;;;;;;4985080;28;20523;-78
2024/03/01 10:16:16;;;;;;;3.92;0.93;;;9.20;67.30;;;;;;5031669;28;20052;-78
2024/03/01 10:19:00;;;;;;;3.83;0.80;;;9.20;67.20;;;;;;5032337;28;20040;-79
2024/03/01 10:22:12;;;;;;;3.30;1.08;;;9.30;67.30;;;;;;5032202;28;20047;-77
2024/03/01 10:25:07;;;;;;;2.25;0.77;;;9.50;67.40;;;;;;5022140;28;20040;-77
2024/03/01 10:28:15;;;;;;;3.53;1.10;;;9.60;67.20;;;;;;5037648;28;20098;-77
2024/03/01 10:31:10;;;;;;;3.90;0.93;;;9.80;67.20;;;;;;5024036;28;20515;-78
2024/03/01 10:34:10;;;;;;;5.05;1.20;;;9.80;66.90;;;;;;5031406;28;20079;-78
2024/03/01 10:37:02;;;;;;;3.78;0.90;;;9.90;66.80;;;;;;5031997;28;20412;-77
2024/03/01 10:40:01;;;;;;;5.85;1.60;;;9.90;66.70;;;;;;5035581;28;20108;-77
2024/03/01 10:43:04;;;;;;;4.18;1.10;;;9.90;66.70;;;;;;5039963;28;20047;-77
2024/03/01 10:46:11;;;;;;;4.50;1.17;;;9.90;66.60;;;;;;5033283;28;20036;-77
2024/03/01 10:49:06;;;;;;;4.47;1.00;;;9.90;66.50;;;;;;5034541;28;20455;-78
2024/03/01 10:51:56;;;;;;;3.90;1.15;;;10.10;66.80;;;;;;5026705;28;20121;-77
2024/03/01 10:54:45;;;;;;;5.15;0.88;;;10.20;66.80;;;;;;5036456;28;20079;-76
2024/03/01 10:57:33;;;;;;;3.58;1.27;;;10.20;66.60;;;;;;5037127;28;20098;-77
2024/03/01 11:00:24;;;;;;;2.38;0.80;;;10.20;66.40;;;;;;5035261;28;20455;-76
2024/03/01 11:03:23;;;;;;;2.80;0.75;;;10.30;66.40;;;;;;5035910;28;20388;-77
2024/03/01 11:06:20;;;;;;;4.63;1.50;;;10.30;66.30;;;;;;5034898;28;20117;-77
2024/03/01 11:09:24;;;;;;;3.10;0.70;;;10.40;66.40;;;;;;5037318;28;20429;-77
2024/03/01 11:12:29;;;;;;;4.05;1.25;;;10.50;66.90;;;;;;5043441;28;20050;-76
2024/03/01 11:15:15;;;;;;;2.42;1.33;;;10.60;66.40;;;;;;5034658;28;20067;-77
2024/03/01 11:18:06;;;;;;;4.82;1.13;;;10.90;66.60;;;;;;5041632;28;20106;-77
2024/03/01 11:21:04;;;;;;;6.60;1.55;;;11.20;66.60;;;;;;5036119;28;20036;-77
2024/03/01 11:24:08;;;;;;;4.40;1.23;;;11.50;66.60;;;;;;5038767;28;20120;-77
2024/03/01 11:26:59;;;;;;;4.78;1.33;;;11.70;66.50;;;;;;5052540;28;20039;-77
2024/03/01 11:29:53;;;;;;;4.05;0.98;;;11.90;66.20;;;;;;5035462;28;20048;-76
2024/03/01 11:32:42;;;;;;;6.45;1.17;;;12.10;66.10;;;;;;5046908;28;20064;-76
2024/03/01 11:35:47;;;;;;;7.03;1.20;;;12.10;66.00;;;;;;5036175;28;20091;-76
2024/03/01 11:38:36;;;;;;;6.07;1.20;;;12.20;66.10;;;;;;5039672;28;20075;-76
2024/03/01 11:42:07;;;;;;;4.30;1.20;;;12.30;66.20;;;;;;5040492;28;20527;-76
2024/03/01 11:45:01;;;;;;;3.00;0.85;;;12.30;66.00;;;;;;5035597;28;20075;-77
2024/03/01 11:48:04;;;;;;;4.40;0.80;;;12.40;66.00;;;;;;5034143;28;20063;-77
2024/03/01 11:51:16;;;;;;;4.57;1.10;;;12.50;66.10;;;;;;5017667;28;20056;-76
2024/03/01 11:54:22;;;;;;;3.42;0.93;;;12.50;65.90;;;;;;5038543;28;20055;-76
2024/03/01 11:57:29;;;;;;;3.13;0.95;;;12.50;65.70;;;;;;5034598;28;20086;-76
2024/03/01 12:00:20;;;;;;;2.20;1.15;;;12.50;65.50;;;;;;5036920;28;20041;-76
2024/03/01 12:03:23;;;;;;;1.42;0.50;;;12.50;65.50;;;;;;5036347;28;20388;-76
2024/03/01 12:06:45;;;;;;;3.60;0.90;;;12.60;65.50;;;;;;5033985;28;20052;-76
2024/03/01 12:10:05;;;;;;;2.80;0.70;;;12.50;65.30;;;;;;5037930;28;20078;-76
2024/03/01 12:13:05;;;;;;;2.28;0.68;;;12.50;65.30;;;;;;5036844;28;20486;-77
2024/03/01 12:16:03;;;;;;;2.30;0.70;;;12.50;65.10;;;;;;5038145;28;20130;-77
2024/03/01 12:18:53;;;;;;;2.55;0.70;;;12.50;65.00;;;;;;5033852;28;20102;-76
2024/03/01 12:22:04;;;;;;;2.28;0.68;;;12.50;64.90;;;;;;5033348;28;20047;-76
2024/03/01 12:24:50;;;;;;;3.53;0.80;;;12.50;64.70;;;;;;5037987;28;20052;-77
2024/03/01 12:27:39;;;;;;;3.83;0.80;;;12.50;65.20;;;;;;5035530;28;20175;-76
2024/03/01 12:30:29;;;;;;;1.95;0.80;;;12.50;64.50;;;;;;5033345;28;20138;-77
2024/03/01 12:33:57;;;;;;;1.58;0.52;;;12.50;64.30;;;;;;5032697;28;20068;-76
2024/03/01 12:37:00;;;;;;;2.88;0.80;;;12.50;64.10;;;;;;5025365;28;20091;-76
2024/03/01 12:40:16;;;;;;;2.08;0.63;;;12.50;64.10;;;;;;5033543;28;20491;-76
2024/03/01 12:43:09;;;;;;;1.55;1.20;;;12.50;64.10;;;;;;5027229;28;20356;-78
2024/03/01 12:46:18;;;;;;;1.85;0.63;;;12.30;63.80;;;;;;5030951;28;20107;-78
2024/03/01 12:49:06;;;;;;;1.92;1.10;;;12.30;63.80;;;;;;5040155;28;20052;-78
2024/03/01 12:52:11;;;;;;;2.55;0.70;;;12.20;63.70;;;;;;5022735;28;20075;-78
2024/03/01 12:54:58;;;;;;;1.65;1.40;;;12.10;63.50;;;;;;5032487;28;20090;-77
2024/03/01 12:58:11;;;;;;;2.92;0.77;;;12.00;63.50;;;;;;5016533;28;20292;-77
2024/03/01 13:01:09;;;;;;;3.00;0.60;;;12.00;63.50;;;;;;5029300;28;20055;-77
2024/03/01 13:04:06;;;;;;;1.80;0.47;;;11.90;63.40;;;;;;5036906;28;20270;-77
2024/03/01 13:06:53;;;;;;;1.27;0.50;;;11.90;63.40;;;;;;5022925;28;20499;-78
2024/03/01 13:09:49;;;;;;;2.70;0.95;;;11.90;63.40;;;;;;5026667;28;20091;-77
2024/03/01 13:12:36;;;;;;;1.90;0.68;;;11.90;63.40;;;;;;5029373;28;20075;-77
2024/03/01 13:15:21;;;;;;;1.73;0.80;;;11.80;63.30;;;;;;5026088;28;20142;-77
2024/03/01 13:18:15;;;;;;;5.15;1.20;;;11.80;63.30;;;;;;5031636;28;20214;-77
2024/03/01 13:21:06;;;;;;;2.47;0.82;;;11.90;63.30;;;;;;5020331;28;20086;-77
2024/03/01 13:24:20;;;;;;;1.45;0.60;;;11.90;63.10;;;;;;5038145;28;20048;-77
2024/03/01 13:27:23;;;;;;;0.98;0.82;;;12.00;63.10;;;;;;5032726;28;20045;-78
2024/03/01 13:30:20;;;;;;;1.38;0.57;;;12.10;63.10;;;;;;5034376;28;20130;-77
2024/03/01 13:33:36;;;;;;;0.70;0.50;;;12.10;63.00;;;;;;5026129;28;20044;-77
2024/03/01 13:36:28;;;;;;;2.13;0.52;;;12.20;63.00;;;;;;5012214;28;20079;-77
2024/03/01 13:39:25;;;;;;;1.63;0.70;;;12.30;63.10;;;;;;5041297;28;20518;-77
2024/03/01 13:42:35;;;;;;;2.58;0.60;;;12.40;63.00;;;;;;5018013;28;20614;-77
2024/03/01 13:45:32;;;;;;;1.73;0.40;;;12.60;63.10;;;;;;5024450;28;20094;-78
2024/03/01 13:48:23;;;;;;;1.75;0.65;;;12.70;63.10;;;;;;5034474;28;20134;-78
2024/03/01 13:51:08;;;;;;;1.38;0.75;;;12.70;62.90;;;;;;5034042;28;20078;-78
2024/03/01 13:53:54;;;;;;;0.90;0.30;;;12.80;63.00;;;;;;5049167;28;20407;-78
2024/03/01 13:56:40;;;;;;;1.25;0.85;;;12.90;63.10;;;;;;5033156;28;20460;-78
2024/03/01 13:59:24;;;;;;;0.43;0.40;;;13.00;63.00;;;;;;5040111;28;20040;-78
2024/03/01 14:02:11;;;;;;;1.63;0.50;;;13.20;63.10;;;;;;5032062;28;20350;-79
2024/03/01 14:05:09;;;;;;;1.17;0.38;;;13.20;62.90;;;;;;5010917;28;20068;-77
2024/03/01 14:07:57;;;;;;;1.13;0.50;;;13.40;63.00;;;;;;5027069;28;20043;-79
2024/03/01 14:10:44;;;;;;;2.10;0.65;;;13.40;62.80;;;;;;5037793;28;20128;-77
2024/03/01 14:13:29;;;;;;;1.13;0.43;;;13.50;62.70;;;;;;5041498;28;20425;-78
2024/03/01 14:16:13;;;;;;;1.48;0.50;;;13.60;62.70;;;;;;5025249;28;20451;-77
2024/03/01 14:19:00;;;;;;;1.65;0.35;;;13.50;62.40;;;;;;5034388;28;20094;-78
2024/03/01 14:21:44;;;;;;;1.85;0.60;;;13.50;62.30;;;;;;5030230;28;20385;-76
2024/03/01 14:24:29;;;;;;;3.88;0.65;;;13.40;62.20;;;;;;5026179;28;20428;-77
2024/03/01 14:27:14;;;;;;;2.85;0.57;;;13.40;62.20;;;;;;5042434;28;20142;-77
2024/03/01 14:29:58;;;;;;;3.33;0.77;;;13.40;62.20;;;;;;5038503;28;20201;-77
2024/03/01 14:33:10;;;;;;;1.23;0.50;;;13.50;62.30;;;;;;5038455;28;20470;-77
2024/03/01 14:36:05;;;;;;;2.08;0.98;;;13.50;62.10;;;;;;5036179;28;20438;-77
2024/03/01 14:38:57;;;;;;;1.65;0.52;;;13.60;62.20;;;;;;5040296;28;20043;-77
2024/03/01 14:41:41;;;;;;;1.70;0.47;;;13.70;62.20;;;;;;5044927;28;20040;-76
2024/03/01 14:44:29;;;;;;;2.92;0.75;;;13.80;62.20;;;;;;5045931;28;20059;-76
2024/03/01 14:47:13;;;;;;;1.40;0.60;;;13.80;62.00;;;;;;5040081;28;20051;-77
2024/03/01 14:50:03;;;;;;;1.25;0.50;;;13.90;62.00;;;;;;5036689;28;20075;-77